| time (UTC) | temp C | wind direction | speed KPH | gust KPH | rain 1hr cm | rain 24hr cm | rain mn cm | humidity % | barometer mb |
| 20260906224518 | 36 | 126 | 3.2 | 6.4 | 0.00 | 0.00 | 0.00 | 40 | 1012.1 |
| 20260906223537 | 36 | 115 | 4.8 | 12.9 | 0.00 | 0.00 | 0.00 | 39 | 1012.2 |
| 20260906222518 | 36 | 137 | 4.8 | 9.7 | 0.00 | 0.00 | 0.00 | 39 | 1012.2 |
| 20260906221518 | 36 | 176 | 4.8 | 9.7 | 0.00 | 0.00 | 0.00 | 39 | 1012.2 |
| 20260906220517 | 36 | 201 | 3.2 | 11.3 | 0.00 | 0.00 | 0.00 | 39 | 1012.3 |
| 20260906215518 | 36 | 180 | 3.2 | 11.3 | 0.00 | 0.00 | 0.00 | 39 | 1012.3 |
| 20260906214519 | 35 | 90 | 6.4 | 14.5 | 0.00 | 0.00 | 0.00 | 40 | 1012.4 |
| 20260906213559 | 36 | 209 | 6.4 | 12.9 | 0.00 | 0.00 | 0.00 | 40 | 1012.5 |
| 20260906212518 | 36 | 169 | 4.8 | 17.7 | 0.00 | 0.00 | 0.00 | 40 | 1012.6 |
| 20260906211519 | 35 | 154 | 3.2 | 6.4 | 0.00 | 0.00 | 0.00 | 41 | 1012.7 |
| 20260906210516 | 35 | 117 | 4.8 | 11.3 | 0.00 | 0.00 | 0.00 | 43 | 1012.9 |
| 20260906205536 | 35 | 255 | 4.8 | 9.7 | 0.00 | 0.00 | 0.00 | 44 | 1013.1 |
| 20260906204517 | 35 | 106 | 4.8 | 9.7 | 0.00 | 0.00 | 0.00 | 43 | 1013.3 |
| 20260906203516 | 35 | 166 | 6.4 | 12.9 | 0.00 | 0.00 | 0.00 | 42 | 1013.3 |
| 20260906202516 | 35 | 46 | 4.8 | 11.3 | 0.00 | 0.00 | 0.00 | 43 | 1013.3 |
| 20260906201517 | 35 | 148 | 4.8 | 12.9 | 0.00 | 0.00 | 0.00 | 42 | 1013.4 |
| 20260906200516 | 35 | 133 | 4.8 | 11.3 | 0.00 | 0.00 | 0.00 | 43 | 1013.5 |
| 20260906195517 | 35 | 111 | 6.4 | 14.5 | 0.00 | 0.00 | 0.00 | 43 | 1013.5 |
| 20260906194517 | 35 | 139 | 6.4 | 14.5 | 0.00 | 0.00 | 0.00 | 43 | 1013.5 |
| 20260906193517 | 35 | 199 | 8.0 | 17.7 | 0.00 | 0.00 | 0.00 | 43 | 1013.5 |
| 20260906192517 | 35 | 146 | 4.8 | 17.7 | 0.00 | 0.00 | 0.00 | 43 | 1013.7 |
| 20260906191517 | 35 | 169 | 4.8 | 12.9 | 0.00 | 0.00 | 0.00 | 42 | 1013.8 |
| 20260906190518 | 34 | 116 | 6.4 | 11.3 | 0.00 | 0.00 | 0.00 | 44 | 1014.1 |
| 20260906185517 | 35 | 354 | 4.8 | 8.0 | 0.00 | 0.00 | 0.00 | 42 | 1014.1 |
| 20260906184518 | 36 | 135 | 4.8 | 12.9 | 0.00 | 0.00 | 0.00 | 41 | 1014.2 |
| 20260906183538 | 35 | 145 | 3.2 | 9.7 | 0.00 | 0.00 | 0.00 | 42 | 1014.2 |
| 20260906182518 | 35 | 162 | 4.8 | 12.9 | 0.00 | 0.00 | 0.00 | 42 | 1014.3 |
| 20260906181538 | 35 | 117 | 4.8 | 11.3 | 0.00 | 0.00 | 0.00 | 44 | 1014.5 |
| 20260906180518 | 33 | 152 | 4.8 | 12.9 | 0.00 | 0.00 | 0.00 | 45 | 1014.7 |
| 20260906175518 | 32 | 339 | 3.2 | 4.8 | 0.00 | 0.00 | 0.00 | 49 | 1014.9 |
| 20260906174518 | 32 | 5 | 4.8 | 11.3 | 0.00 | 0.00 | 0.00 | 54 | 1015.2 |
| 20260906173539 | 33 | 31 | 4.8 | 9.7 | 0.00 | 0.00 | 0.00 | 47 | 1015.2 |
| 20260906172516 | 32 | 55 | 3.2 | 6.4 | 0.00 | 0.00 | 0.00 | 48 | 1015.3 |
| 20260906042519 | 28 | 122 | 3.2 | 6.4 | 0.00 | 0.00 | 0.00 | 55 | 1014.5 |
| 20260906041516 | 27 | 122 | 3.2 | 4.8 | 0.00 | 0.00 | 0.00 | 55 | 1014.5 |
| 20260906040537 | 27 | 118 | 1.6 | 4.8 | 0.00 | 0.00 | 0.00 | 55 | 1014.4 |
| 20260906035516 | 27 | 130 | 0.0 | 1.6 | 0.00 | 0.00 | 0.00 | 55 | 1014.3 |
| 20260906034516 | 28 | 110 | 0.0 | 3.2 | 0.00 | 0.00 | 0.00 | 54 | 1014.2 |
| 20260906033517 | 28 | 118 | 1.6 | 3.2 | 0.00 | 0.00 | 0.00 | 53 | 1014.2 |
| 20260906032517 | 28 | 129 | 1.6 | 4.8 | 0.00 | 0.00 | 0.00 | 53 | 1014.0 |
| 20260906031517 | 28 | 122 | 1.6 | 4.8 | 0.00 | 0.00 | 0.00 | 52 | 1013.9 |
| 20260906030517 | 28 | 106 | 1.6 | 4.8 | 0.00 | 0.00 | 0.00 | 51 | 1013.9 |
| 20260906025517 | 29 | 95 | 3.2 | 6.4 | 0.00 | 0.00 | 0.00 | 51 | 1013.7 |
| 20260906024517 | 29 | 93 | 1.6 | 3.2 | 0.00 | 0.00 | 0.00 | 50 | 1013.5 |
| 20260906023518 | 30 | 91 | 1.6 | 3.2 | 0.00 | 0.00 | 0.00 | 49 | 1013.3 |
| 20260906022518 | 30 | 90 | 3.2 | 4.8 | 0.00 | 0.00 | 0.00 | 48 | 1013.3 |
| 20260906021518 | 30 | 80 | 1.6 | 3.2 | 0.00 | 0.00 | 0.00 | 47 | 1013.2 |
| 20260906020518 | 30 | 96 | 1.6 | 4.8 | 0.00 | 0.00 | 0.00 | 46 | 1013.0 |
| 20260906015518 | 31 | 100 | 1.6 | 3.2 | 0.00 | 0.00 | 0.00 | 46 | 1012.9 |
| 20260906014518 | 31 | 105 | 1.6 | 4.8 | 0.00 | 0.00 | 0.00 | 45 | 1012.8 |
| 20260906013539 | 31 | 102 | 0.0 | 3.2 | 0.00 | 0.00 | 0.00 | 45 | 1012.7 |
| 20260906012519 | 32 | 97 | 1.6 | 4.8 | 0.00 | 0.00 | 0.00 | 44 | 1012.6 |
| 20260906011518 | 32 | 106 | 1.6 | 4.8 | 0.00 | 0.00 | 0.00 | 43 | 1012.5 |
| 20260906010539 | 32 | 107 | 3.2 | 6.4 | 0.00 | 0.00 | 0.00 | 42 | 1012.4 |
| 20260906005516 | 33 | 120 | 3.2 | 6.4 | 0.00 | 0.00 | 0.00 | 41 | 1012.3 |
| 20260906004516 | 33 | 111 | 3.2 | 6.4 | 0.00 | 0.00 | 0.00 | 40 | 1012.3 |
| 20260906003516 | 34 | 112 | 3.2 | 6.4 | 0.00 | 0.00 | 0.00 | 39 | 1012.2 |
| 20260906002516 | 35 | 109 | 4.8 | 11.3 | 0.00 | 0.00 | 0.00 | 38 | 1012.2 |
| 20260906001517 | 35 | 105 | 4.8 | 11.3 | 0.00 | 0.00 | 0.00 | 38 | 1012.1 |
| 20260906000537 | 35 | 106 | 4.8 | 9.7 | 0.00 | 0.00 | 0.00 | 37 | 1012.1 |
| 20260905235517 | 36 | 135 | 4.8 | 9.7 | 0.00 | 0.00 | 0.00 | 36 | 1012.1 |
| 20260905234537 | 36 | 121 | 4.8 | 16.1 | 0.00 | 0.00 | 0.00 | 36 | 1012.0 |
| 20260905233517 | 36 | 144 | 4.8 | 14.5 | 0.00 | 0.00 | 0.00 | 35 | 1011.9 |
| 20260905232517 | 36 | 156 | 4.8 | 14.5 | 0.00 | 0.00 | 0.00 | 35 | 1011.8 |
| 20260905231517 | 36 | 116 | 3.2 | 11.3 | 0.00 | 0.00 | 0.00 | 35 | 1011.9 |
| 20260905230518 | 36 | 125 | 3.2 | 8.0 | 0.00 | 0.00 | 0.00 | 35 | 1011.9 |
| 20260905225517 | 36 | 157 | 4.8 | 14.5 | 0.00 | 0.00 | 0.00 | 35 | 1011.9 |